createdAt,value
2023-05-17T00:02:18.748Z,100.00
2023-05-17T00:04:48.845Z,100.00
2023-05-17T00:07:17.600Z,100.00
2023-05-17T00:09:46.504Z,100.00
2023-05-17T00:12:14.530Z,100.00
2023-05-17T00:14:42.666Z,100.00
2023-05-17T00:17:10.943Z,100.00
2023-05-17T00:19:39.242Z,100.00
2023-05-17T00:22:09.180Z,100.00
2023-05-17T00:24:37.398Z,100.00
2023-05-17T00:27:06.147Z,100.00
2023-05-17T00:29:34.256Z,100.00
2023-05-17T00:32:03.002Z,100.00
2023-05-17T00:34:31.812Z,100.00
2023-05-17T00:37:00.130Z,100.00
2023-05-17T00:39:29.776Z,100.00
2023-05-17T00:41:57.873Z,100.00
2023-05-17T00:44:38.875Z,100.00
2023-05-17T00:47:07.174Z,100.00
2023-05-17T00:49:35.633Z,100.00
2023-05-17T00:52:04.016Z,100.00
2023-05-17T00:54:35.407Z,100.00
2023-05-17T00:57:04.437Z,100.00
2023-05-17T00:59:37.569Z,100.00
2023-05-17T01:02:06.699Z,100.00
2023-05-17T01:04:34.979Z,100.00
2023-05-17T01:07:03.214Z,100.00
2023-05-17T01:09:32.008Z,100.00
2023-05-17T01:12:09.277Z,100.00
2023-05-17T01:14:48.663Z,100.00
2023-05-17T01:17:24.088Z,100.00
2023-05-17T01:20:02.355Z,100.00
2023-05-17T01:22:41.286Z,100.00
2023-05-17T01:25:43.930Z,100.00
2023-05-17T01:28:16.276Z,100.00
2023-05-17T01:30:46.426Z,100.00
2023-05-17T01:33:16.448Z,100.00
2023-05-17T01:35:44.868Z,100.00
2023-05-17T01:38:12.974Z,100.00
2023-05-17T01:40:49.479Z,100.00
2023-05-17T01:43:25.395Z,100.00
2023-05-17T01:46:01.976Z,100.00
2023-05-17T01:48:36.877Z,100.00
2023-05-17T01:51:06.170Z,100.00
2023-05-17T01:53:40.663Z,100.00
2023-05-17T01:59:00.707Z,100.00
2023-05-17T02:01:31.905Z,100.00
2023-05-17T02:04:00.008Z,100.00
2023-05-17T02:06:28.418Z,100.00
2023-05-17T02:08:56.574Z,100.00
2023-05-17T02:11:36.369Z,100.00
2023-05-17T02:14:05.920Z,100.00
2023-05-17T02:16:37.745Z,100.00
2023-05-17T02:19:07.553Z,100.00
2023-05-17T02:21:36.129Z,100.00
2023-05-17T02:24:04.287Z,100.00
2023-05-17T02:26:33.322Z,100.00
2023-05-17T02:29:01.589Z,100.00
2023-05-17T02:31:33.848Z,100.00
2023-05-17T02:34:02.046Z,100.00
2023-05-17T02:36:30.959Z,100.00
2023-05-17T02:38:59.493Z,100.00
2023-05-17T02:41:28.184Z,100.00
2023-05-17T02:43:56.567Z,100.00
2023-05-17T02:46:26.292Z,100.00
2023-05-17T02:48:55.921Z,100.00
2023-05-17T02:51:24.038Z,100.00
2023-05-17T02:53:52.528Z,100.00
2023-05-17T02:56:21.278Z,100.00
2023-05-17T02:58:49.328Z,100.00
2023-05-17T03:01:17.476Z,100.00
2023-05-17T03:03:46.255Z,100.00
2023-05-17T03:06:17.255Z,100.00
2023-05-17T03:08:45.474Z,100.00
2023-05-17T03:11:14.399Z,100.00
2023-05-17T03:13:42.528Z,100.00
2023-05-17T03:16:10.761Z,100.00
2023-05-17T03:18:39.214Z,100.00
2023-05-17T03:21:07.504Z,100.00
2023-05-17T03:23:37.142Z,100.00
2023-05-17T03:26:05.393Z,100.00
2023-05-17T03:28:33.577Z,99.49
2023-05-17T03:31:01.970Z,100.00
2023-05-17T03:33:36.918Z,100.00
2023-05-17T03:36:05.910Z,100.00
2023-05-17T03:38:34.132Z,100.00
2023-05-17T03:41:04.704Z,100.00
2023-05-17T03:43:33.675Z,100.00
2023-05-17T03:46:02.248Z,100.00
2023-05-17T03:48:36.465Z,100.00
2023-05-17T03:51:05.451Z,100.00
2023-05-17T03:53:33.915Z,100.00
2023-05-17T03:56:03.604Z,100.00
2023-05-17T03:58:31.686Z,100.00
2023-05-17T04:00:59.841Z,100.00
2023-05-17T04:03:28.015Z,100.00
2023-05-17T04:06:02.241Z,100.00
2023-05-17T04:08:30.540Z,100.00
2023-05-17T04:10:58.727Z,100.00
2023-05-17T04:13:28.240Z,100.00
2023-05-17T04:15:56.453Z,100.00
2023-05-17T04:18:24.818Z,100.00
2023-05-17T04:20:53.039Z,100.00
2023-05-17T04:23:21.261Z,100.00
2023-05-17T04:25:49.381Z,100.00
2023-05-17T04:28:17.966Z,100.00
2023-05-17T04:30:49.277Z,100.00
2023-05-17T04:33:18.177Z,100.00
2023-05-17T04:35:47.821Z,100.00
2023-05-17T04:38:16.401Z,100.00
2023-05-17T04:40:44.506Z,100.00
2023-05-17T04:43:12.684Z,100.00
2023-05-17T04:45:41.327Z,100.00
2023-05-17T04:48:12.841Z,100.00
2023-05-17T04:50:41.032Z,100.00
2023-05-17T04:53:09.910Z,100.00
2023-05-17T04:55:38.149Z,100.00
2023-05-17T04:58:06.334Z,100.00
2023-05-17T05:00:34.838Z,100.00
2023-05-17T05:03:05.007Z,100.00
2023-05-17T05:05:37.957Z,100.00
2023-05-17T05:08:06.249Z,99.95
2023-05-17T05:10:34.787Z,99.59
2023-05-17T05:13:03.065Z,98.49
2023-05-17T05:15:31.683Z,98.02
2023-05-17T05:18:00.339Z,98.67
2023-05-17T05:20:29.043Z,97.96
2023-05-17T05:22:58.968Z,97.77
2023-05-17T05:25:27.656Z,97.39
2023-05-17T05:27:56.441Z,96.71
2023-05-17T05:30:24.612Z,95.91
2023-05-17T05:32:53.377Z,97.52
2023-05-17T05:35:26.464Z,96.59
2023-05-17T05:37:55.087Z,95.57
2023-05-17T05:40:24.891Z,96.47
2023-05-17T05:42:53.634Z,96.77
2023-05-17T05:45:21.997Z,95.33
2023-05-17T05:47:50.784Z,96.46
2023-05-17T05:50:19.251Z,96.71
2023-05-17T05:52:47.696Z,94.91
2023-05-17T05:55:15.774Z,95.90
2023-05-17T05:57:45.712Z,99.60
2023-05-17T06:00:15.068Z,98.70
2023-05-17T06:02:43.188Z,94.36
2023-05-17T06:05:11.882Z,97.01
2023-05-17T06:07:40.080Z,98.17
2023-05-17T06:10:09.741Z,98.22
2023-05-17T06:12:37.893Z,97.89
2023-05-17T06:15:09.006Z,98.52
2023-05-17T06:17:37.413Z,97.57
2023-05-17T06:20:06.984Z,99.03
2023-05-17T06:22:35.104Z,100.00
2023-05-17T06:25:03.166Z,98.95
2023-05-17T06:27:32.832Z,99.62
2023-05-17T06:30:01.491Z,100.00
2023-05-17T06:32:31.161Z,100.00
2023-05-17T06:34:59.444Z,100.00
2023-05-17T06:37:27.599Z,100.00
2023-05-17T06:42:37.769Z,100.00
2023-05-17T06:45:07.483Z,100.00
2023-05-17T06:47:40.191Z,97.97
2023-05-17T06:50:09.910Z,99.66
2023-05-17T06:52:38.169Z,100.00
2023-05-17T06:55:07.601Z,100.00
2023-05-17T06:57:35.770Z,100.00
2023-05-17T07:00:06.731Z,100.00
2023-05-17T07:02:35.178Z,100.00
2023-05-17T07:05:04.996Z,100.00
2023-05-17T07:07:33.163Z,100.00
2023-05-17T07:10:01.434Z,100.00
2023-05-17T07:12:39.316Z,100.00
2023-05-17T07:15:08.410Z,100.00
2023-05-17T07:17:36.680Z,100.00
2023-05-17T07:20:07.364Z,100.00
2023-05-17T07:22:35.509Z,100.00
2023-05-17T07:25:03.608Z,100.00
2023-05-17T07:27:32.424Z,100.00
2023-05-17T07:30:00.576Z,100.00
2023-05-17T07:32:28.917Z,100.00
2023-05-17T07:34:57.106Z,100.00
2023-05-17T07:37:27.152Z,100.00
2023-05-17T07:39:55.412Z,100.00
2023-05-17T07:42:24.813Z,100.00
2023-05-17T07:44:54.663Z,100.00
2023-05-17T07:47:22.759Z,100.00
2023-05-17T07:49:51.453Z,100.00
2023-05-17T07:52:19.629Z,100.00
2023-05-17T07:54:49.315Z,100.00
2023-05-17T07:57:17.727Z,100.00
2023-05-17T07:59:46.175Z,100.00
2023-05-17T08:02:14.399Z,100.00
2023-05-17T08:04:43.214Z,100.00
2023-05-17T08:07:11.339Z,100.00
2023-05-17T08:09:40.326Z,100.00
2023-05-17T08:12:09.931Z,100.00
2023-05-17T08:14:39.079Z,100.00
2023-05-17T08:17:07.250Z,100.00
2023-05-17T08:19:37.397Z,100.00
2023-05-17T08:22:05.984Z,100.00
2023-05-17T08:24:34.154Z,100.00
2023-05-17T08:27:02.637Z,100.00
2023-05-17T08:29:38.787Z,100.00
2023-05-17T08:32:08.692Z,100.00
2023-05-17T08:34:36.794Z,100.00
2023-05-17T08:37:05.119Z,100.00
2023-05-17T08:39:34.004Z,100.00
2023-05-17T08:42:02.629Z,100.00
2023-05-17T08:44:33.695Z,100.00
2023-05-17T08:47:02.969Z,100.00
2023-05-17T08:49:33.398Z,100.00
2023-05-17T08:52:03.545Z,100.00
2023-05-17T08:54:32.130Z,100.00
2023-05-17T08:57:02.576Z,100.00
2023-05-17T08:59:34.034Z,100.00
2023-05-17T09:02:03.038Z,100.00
2023-05-17T09:04:31.740Z,100.00
2023-05-17T09:06:59.932Z,100.00
2023-05-17T09:09:28.877Z,100.00
2023-05-17T09:11:57.193Z,100.00
2023-05-17T09:14:25.386Z,100.00
2023-05-17T09:16:58.877Z,100.00
2023-05-17T09:19:27.159Z,100.00
2023-05-17T09:21:56.949Z,100.00
2023-05-17T09:24:39.634Z,100.00
2023-05-17T09:27:07.745Z,100.00
2023-05-17T09:29:37.059Z,100.00
2023-05-17T09:32:26.091Z,100.00
2023-05-17T09:34:56.454Z,100.00
2023-05-17T09:37:27.458Z,100.00
2023-05-17T09:39:56.387Z,100.00
2023-05-17T09:42:27.784Z,100.00
2023-05-17T09:45:00.301Z,100.00
2023-05-17T09:47:32.036Z,100.00
2023-05-17T09:50:03.870Z,100.00
2023-05-17T09:52:32.639Z,100.00
2023-05-17T09:55:01.978Z,100.00
2023-05-17T09:57:38.200Z,100.00
2023-05-17T10:00:09.662Z,100.00
2023-05-17T10:02:41.384Z,100.00
2023-05-17T10:05:13.270Z,100.00
2023-05-17T10:07:43.181Z,100.00
2023-05-17T10:10:14.337Z,100.00
2023-05-17T10:12:43.231Z,100.00
2023-05-17T10:15:16.293Z,100.00
2023-05-17T10:17:46.702Z,100.00
2023-05-17T10:20:17.804Z,100.00
2023-05-17T10:22:46.707Z,100.00
2023-05-17T10:25:17.242Z,100.00
2023-05-17T10:27:47.389Z,100.00
2023-05-17T10:30:16.834Z,100.00
2023-05-17T10:32:46.794Z,100.00
2023-05-17T10:35:16.941Z,98.85
2023-05-17T10:37:45.161Z,99.60
2023-05-17T10:40:14.415Z,100.00
2023-05-17T10:42:45.849Z,100.00
2023-05-17T10:45:14.893Z,100.00
2023-05-17T10:47:46.270Z,100.00
2023-05-17T10:50:29.359Z,100.00
2023-05-17T10:53:00.959Z,100.00
2023-05-17T10:55:41.337Z,100.00
2023-05-17T10:58:17.859Z,100.00
2023-05-17T11:00:48.314Z,100.00
2023-05-17T11:03:19.297Z,100.00
2023-05-17T11:06:23.935Z,100.00
2023-05-17T11:09:16.707Z,100.00
2023-05-17T11:12:06.205Z,100.00
2023-05-17T11:14:53.573Z,100.00
2023-05-17T11:17:23.146Z,100.00
2023-05-17T11:19:57.554Z,100.00
2023-05-17T11:22:27.857Z,100.00
2023-05-17T11:24:59.056Z,100.00
2023-05-17T11:27:29.123Z,100.00
2023-05-17T11:29:58.970Z,100.00
2023-05-17T11:32:30.808Z,100.00
2023-05-17T11:35:01.980Z,100.00
2023-05-17T11:37:34.823Z,100.00
2023-05-17T11:40:05.015Z,100.00
2023-05-17T11:42:38.308Z,100.00
2023-05-17T11:45:07.701Z,100.00
2023-05-17T11:47:42.036Z,100.00
2023-05-17T11:50:12.463Z,100.00
2023-05-17T11:52:42.457Z,100.00
2023-05-17T11:55:16.140Z,100.00
2023-05-17T11:57:45.428Z,100.00
2023-05-17T12:00:16.914Z,100.00
2023-05-17T12:02:45.175Z,100.00
2023-05-17T12:05:20.668Z,100.00
2023-05-17T12:07:50.467Z,100.00
2023-05-17T12:10:19.344Z,100.00
2023-05-17T12:12:47.535Z,100.00
2023-05-17T12:15:20.556Z,100.00
2023-05-17T12:17:51.666Z,100.00
2023-05-17T12:20:20.366Z,100.00
2023-05-17T12:22:56.768Z,100.00
2023-05-17T12:25:28.110Z,100.00
2023-05-17T12:28:14.728Z,100.00
2023-05-17T12:30:42.999Z,100.00
2023-05-17T12:33:11.692Z,100.00
2023-05-17T12:35:40.768Z,100.00
2023-05-17T12:38:11.564Z,100.00
2023-05-17T12:40:43.434Z,100.00
2023-05-17T12:43:12.303Z,100.00
2023-05-17T12:45:43.861Z,100.00
2023-05-17T12:48:13.512Z,100.00
2023-05-17T12:50:45.862Z,100.00
2023-05-17T12:53:17.852Z,100.00
2023-05-17T12:55:45.944Z,100.00
2023-05-17T12:58:14.122Z,100.00
2023-05-17T13:00:42.387Z,100.00
2023-05-17T13:03:11.771Z,100.00
2023-05-17T13:05:41.374Z,100.00
2023-05-17T13:08:24.644Z,100.00
2023-05-17T13:10:52.807Z,100.00
2023-05-17T13:13:22.551Z,100.00
2023-05-17T13:15:51.065Z,100.00
2023-05-17T13:18:21.464Z,100.00
2023-05-17T13:20:51.453Z,100.00
2023-05-17T13:23:19.651Z,100.00
2023-05-17T13:25:49.212Z,100.00
2023-05-17T13:28:17.325Z,100.00
2023-05-17T13:30:52.116Z,100.00
2023-05-17T13:33:43.133Z,100.00
2023-05-17T13:36:12.288Z,100.00
2023-05-17T13:38:40.484Z,100.00
2023-05-17T13:41:10.385Z,100.00
2023-05-17T13:43:38.490Z,100.00
2023-05-17T13:46:07.092Z,100.00
2023-05-17T13:48:42.766Z,100.00
2023-05-17T13:51:12.519Z,100.00
2023-05-17T13:53:41.617Z,98.50
2023-05-17T13:56:11.290Z,94.65
2023-05-17T13:58:39.422Z,94.87
2023-05-17T14:01:07.838Z,97.23
2023-05-17T14:03:36.354Z,97.86
2023-05-17T14:06:06.422Z,98.39
2023-05-17T14:08:35.336Z,97.54
2023-05-17T14:11:03.658Z,97.84
2023-05-17T14:13:34.150Z,93.75
2023-05-17T14:16:02.362Z,93.36
2023-05-17T14:18:31.517Z,94.39
2023-05-17T14:21:01.153Z,95.16
2023-05-17T14:23:29.464Z,97.12
2023-05-17T14:25:58.083Z,96.71
2023-05-17T14:28:26.155Z,96.63
2023-05-17T14:30:55.639Z,95.55
2023-05-17T14:33:24.094Z,90.02
2023-05-17T14:35:52.287Z,88.63
2023-05-17T14:38:22.429Z,90.96
2023-05-17T14:40:50.542Z,94.07
2023-05-17T14:43:20.297Z,91.54
2023-05-17T14:45:48.736Z,91.26
2023-05-17T14:48:19.923Z,91.62
2023-05-17T14:50:48.462Z,89.27
2023-05-17T14:53:16.708Z,90.53
2023-05-17T14:55:44.917Z,88.19
2023-05-17T14:58:13.851Z,86.94
2023-05-17T15:00:48.511Z,85.44
2023-05-17T15:03:22.199Z,85.20
2023-05-17T15:05:55.615Z,85.89
2023-05-17T15:08:23.858Z,82.31
2023-05-17T15:10:54.309Z,78.98
2023-05-17T15:13:36.987Z,75.10
2023-05-17T15:16:05.184Z,73.94
2023-05-17T15:18:34.849Z,74.06
2023-05-17T15:21:03.552Z,74.77
2023-05-17T15:23:31.708Z,70.21
2023-05-17T15:26:00.300Z,66.63
2023-05-17T15:28:37.489Z,67.33
2023-05-17T15:31:10.660Z,59.41
2023-05-17T15:33:42.634Z,54.74
2023-05-17T15:36:12.417Z,51.80
2023-05-17T15:38:41.831Z,49.95
2023-05-17T15:41:13.085Z,49.68
2023-05-17T15:43:42.527Z,48.53
2023-05-17T15:46:11.847Z,50.00
2023-05-17T15:48:42.731Z,50.02
2023-05-17T15:51:10.979Z,50.73
2023-05-17T15:53:40.040Z,48.33
2023-05-17T15:56:10.255Z,45.26
2023-05-17T15:58:38.734Z,42.08
2023-05-17T16:01:07.554Z,39.77
2023-05-17T16:03:35.857Z,38.09
2023-05-17T16:06:05.884Z,38.07
2023-05-17T16:08:34.052Z,36.63
2023-05-17T16:11:02.715Z,34.31
2023-05-17T16:13:31.118Z,33.95
2023-05-17T16:16:00.468Z,35.54
2023-05-17T16:18:29.367Z,33.61
2023-05-17T16:23:30.702Z,33.64
2023-05-17T16:25:58.895Z,34.42
2023-05-17T16:28:27.038Z,33.92
2023-05-17T16:31:01.433Z,34.55
2023-05-17T16:33:29.598Z,35.29
2023-05-17T16:35:59.079Z,34.83
2023-05-17T16:38:27.665Z,35.13
2023-05-17T16:40:57.585Z,35.08
2023-05-17T16:43:25.810Z,35.28
2023-05-17T16:45:55.071Z,34.29
2023-05-17T16:48:23.930Z,34.02
2023-05-17T16:50:52.345Z,34.76
2023-05-17T16:53:20.909Z,35.15
2023-05-17T16:55:49.074Z,35.25
2023-05-17T16:58:18.814Z,35.42
2023-05-17T17:00:47.380Z,34.99
2023-05-17T17:03:15.593Z,35.49
2023-05-17T17:05:43.862Z,34.59
2023-05-17T17:08:12.096Z,34.97
2023-05-17T17:10:44.090Z,35.33
2023-05-17T17:13:12.792Z,35.66
2023-05-17T17:15:42.374Z,35.78
2023-05-17T17:18:10.463Z,35.92
2023-05-17T17:20:38.751Z,36.25
2023-05-17T17:23:06.955Z,35.68
2023-05-17T17:25:35.273Z,36.09
2023-05-17T17:28:03.754Z,35.90
2023-05-17T17:30:32.124Z,36.38
2023-05-17T17:33:01.983Z,36.32
2023-05-17T17:35:30.842Z,35.88
2023-05-17T17:37:58.916Z,36.15
2023-05-17T17:40:27.545Z,36.29
2023-05-17T17:42:59.505Z,36.05
2023-05-17T17:45:28.528Z,36.29
2023-05-17T17:48:01.324Z,36.05
2023-05-17T17:50:30.168Z,36.40
2023-05-17T17:52:58.718Z,36.51
2023-05-17T17:55:27.007Z,36.41
2023-05-17T17:57:55.550Z,36.63
2023-05-17T18:00:24.160Z,36.87
2023-05-17T18:02:53.719Z,36.91
2023-05-17T18:05:23.370Z,37.10
2023-05-17T18:07:52.097Z,37.32
2023-05-17T18:10:20.544Z,37.42
2023-05-17T18:12:51.516Z,37.31
2023-05-17T18:15:20.018Z,37.69
2023-05-17T18:17:49.028Z,37.88
2023-05-17T18:20:17.622Z,38.32
2023-05-17T18:22:48.070Z,39.26
2023-05-17T18:25:16.271Z,40.66
2023-05-17T18:27:44.802Z,41.36
2023-05-17T18:30:13.850Z,42.09
2023-05-17T18:32:42.105Z,42.92
2023-05-17T18:35:10.590Z,43.59
2023-05-17T18:37:38.886Z,43.48
2023-05-17T18:40:09.874Z,43.49
2023-05-17T18:42:38.398Z,44.12
2023-05-17T18:45:09.197Z,45.41
2023-05-17T18:47:37.978Z,46.32
2023-05-17T18:50:06.828Z,47.90
2023-05-17T18:52:34.950Z,49.30
2023-05-17T18:55:03.186Z,50.23
2023-05-17T18:57:33.205Z,51.25
2023-05-17T19:00:01.769Z,52.46
2023-05-17T19:02:30.353Z,53.44
2023-05-17T19:04:58.499Z,54.27
2023-05-17T19:07:26.710Z,53.99
2023-05-17T19:09:54.992Z,55.59
2023-05-17T19:12:23.233Z,56.20
2023-05-17T19:14:52.761Z,56.99
2023-05-17T19:17:36.902Z,57.75
2023-05-17T19:20:05.581Z,58.48
2023-05-17T19:22:35.887Z,59.20
2023-05-17T19:25:04.498Z,60.20
2023-05-17T19:27:32.607Z,60.86
2023-05-17T19:30:02.162Z,61.16
2023-05-17T19:32:33.262Z,61.83
2023-05-17T19:35:02.366Z,62.50
2023-05-17T19:37:30.545Z,63.43
2023-05-17T19:39:59.946Z,64.13
2023-05-17T19:42:28.545Z,65.06
2023-05-17T19:44:58.428Z,65.13
2023-05-17T19:47:27.908Z,66.27
2023-05-17T19:49:56.233Z,67.37
2023-05-17T19:52:24.282Z,67.47
2023-05-17T19:54:52.786Z,68.73
2023-05-17T19:57:20.919Z,68.06
2023-05-17T19:59:51.477Z,68.89
2023-05-17T20:02:20.565Z,69.60
2023-05-17T20:04:51.048Z,70.38
2023-05-17T20:07:25.515Z,71.58
2023-05-17T20:09:54.334Z,71.26
2023-05-17T20:12:24.199Z,71.96
2023-05-17T20:14:52.336Z,73.03
2023-05-17T20:17:20.612Z,74.07
2023-05-17T20:20:12.409Z,73.84
2023-05-17T20:22:42.717Z,74.99
2023-05-17T20:25:11.827Z,75.59
2023-05-17T20:27:39.963Z,76.50
2023-05-17T20:30:09.318Z,76.77
2023-05-17T20:32:37.483Z,76.86
2023-05-17T20:35:08.065Z,76.71
2023-05-17T20:37:36.276Z,77.70
2023-05-17T20:42:53.874Z,77.94
2023-05-17T20:45:24.349Z,77.88
2023-05-17T20:47:56.363Z,78.41
2023-05-17T20:50:29.446Z,77.70
2023-05-17T20:52:57.772Z,78.15
2023-05-17T20:55:25.966Z,77.57
2023-05-17T20:57:54.536Z,77.97
2023-05-17T21:00:23.385Z,77.75
2023-05-17T21:02:52.234Z,77.98
2023-05-17T21:05:20.571Z,78.00
2023-05-17T21:08:08.477Z,77.25
2023-05-17T21:10:40.711Z,77.04
2023-05-17T21:13:09.650Z,77.04
2023-05-17T21:15:37.877Z,77.05
2023-05-17T21:18:06.877Z,77.05
2023-05-17T21:20:35.231Z,76.66
2023-05-17T21:23:04.709Z,76.26
2023-05-17T21:25:34.181Z,75.93
2023-05-17T21:28:02.310Z,76.08
2023-05-17T21:30:31.089Z,75.58
2023-05-17T21:32:59.523Z,75.95
2023-05-17T21:35:28.059Z,75.86
2023-05-17T21:37:56.131Z,75.71
2023-05-17T21:40:26.335Z,75.85
2023-05-17T21:42:54.452Z,75.77
2023-05-17T21:45:23.913Z,75.60
2023-05-17T21:47:54.596Z,75.67
2023-05-17T21:50:22.759Z,75.33
2023-05-17T21:52:51.002Z,74.91
2023-05-17T21:55:19.228Z,75.17
2023-05-17T21:57:48.786Z,75.19
2023-05-17T22:00:17.636Z,75.44
2023-05-17T22:02:46.380Z,75.53
2023-05-17T22:05:15.152Z,75.02
2023-05-17T22:07:44.736Z,75.54
2023-05-17T22:10:32.675Z,75.63
2023-05-17T22:13:03.252Z,75.51
2023-05-17T22:15:31.413Z,75.39
2023-05-17T22:17:59.665Z,75.81
2023-05-17T22:20:29.341Z,75.05
2023-05-17T22:22:58.620Z,74.60
2023-05-17T22:25:27.313Z,74.71
2023-05-17T22:27:55.380Z,74.46
2023-05-17T22:30:26.060Z,74.19
2023-05-17T22:32:57.285Z,73.80
2023-05-17T22:35:26.083Z,73.83
2023-05-17T22:37:54.229Z,73.63
2023-05-17T22:40:23.462Z,74.35
2023-05-17T22:42:52.129Z,74.06
2023-05-17T22:45:20.367Z,74.26
2023-05-17T22:47:50.843Z,74.31
2023-05-17T22:50:19.807Z,74.47
2023-05-17T22:52:50.816Z,74.65
2023-05-17T22:55:19.078Z,74.18
2023-05-17T22:57:47.491Z,75.45
2023-05-17T23:00:28.806Z,74.56
2023-05-17T23:02:58.539Z,74.45
2023-05-17T23:05:27.227Z,75.15
2023-05-17T23:07:55.589Z,75.16
2023-05-17T23:10:24.866Z,75.65
2023-05-17T23:12:52.977Z,75.26
2023-05-17T23:15:21.934Z,75.11
2023-05-17T23:17:51.123Z,75.37
2023-05-17T23:20:25.180Z,75.77
2023-05-17T23:22:54.837Z,75.82
2023-05-17T23:25:23.228Z,76.03
2023-05-17T23:27:51.498Z,75.18
2023-05-17T23:30:20.974Z,76.58
2023-05-17T23:32:51.469Z,76.20
2023-05-17T23:35:21.306Z,76.44
2023-05-17T23:37:49.416Z,77.11
2023-05-17T23:40:17.958Z,77.26
2023-05-17T23:42:46.654Z,76.40
2023-05-17T23:45:14.762Z,76.65
2023-05-17T23:47:42.964Z,77.41
2023-05-17T23:50:12.293Z,76.71
2023-05-17T23:52:43.530Z,76.62
2023-05-17T23:55:12.184Z,77.23
2023-05-17T23:57:42.444Z,77.81
